createdAt,value
2023-11-19T00:00:30.914Z,6.96
2023-11-19T00:02:57.641Z,6.99
2023-11-19T00:05:24.377Z,7.04
2023-11-19T00:07:51.164Z,6.96
2023-11-19T00:10:21.954Z,7.02
2023-11-19T00:12:50.183Z,6.84
2023-11-19T00:15:19.760Z,6.95
2023-11-19T00:17:48.843Z,7.05
2023-11-19T00:20:20.326Z,7.09
2023-11-19T00:22:52.695Z,7.08
2023-11-19T00:25:20.530Z,6.98
2023-11-19T00:27:47.160Z,7.01
2023-11-19T00:30:15.271Z,7.02
2023-11-19T00:32:42.710Z,7.13
2023-11-19T00:35:11.498Z,7.12
2023-11-19T00:37:38.331Z,6.97
2023-11-19T00:40:06.848Z,7.09
2023-11-19T00:42:33.630Z,7.17
2023-11-19T00:45:03.223Z,7.25
2023-11-19T00:47:29.871Z,7.32
2023-11-19T00:49:56.654Z,7.26
2023-11-19T00:52:23.387Z,7.25
2023-11-19T00:54:50.517Z,7.26
2023-11-19T00:57:17.125Z,7.33
2023-11-19T00:59:44.350Z,7.43
2023-11-19T01:02:11.117Z,7.38
2023-11-19T01:04:38.338Z,7.34
2023-11-19T01:07:06.298Z,7.42
2023-11-19T01:09:35.729Z,7.40
2023-11-19T01:12:03.622Z,7.47
2023-11-19T01:14:30.812Z,7.54
2023-11-19T01:16:57.594Z,7.56
2023-11-19T01:19:24.471Z,7.67
2023-11-19T01:21:53.885Z,7.69
2023-11-19T01:24:20.738Z,7.68
2023-11-19T01:26:50.169Z,7.68
2023-11-19T01:29:17.008Z,7.75
2023-11-19T01:31:44.538Z,7.79
2023-11-19T01:34:12.776Z,7.84
2023-11-19T01:36:40.295Z,7.77
2023-11-19T01:39:07.624Z,7.85
2023-11-19T01:41:38.004Z,7.89
2023-11-19T01:44:04.929Z,7.85
2023-11-19T01:46:34.384Z,7.88
2023-11-19T01:49:01.720Z,7.80
2023-11-19T01:51:29.222Z,7.74
2023-11-19T01:53:57.948Z,7.77
2023-11-19T01:56:26.500Z,7.78
2023-11-19T01:58:55.793Z,7.80
2023-11-19T02:01:23.151Z,7.87
2023-11-19T02:03:50.354Z,7.89
2023-11-19T02:06:17.315Z,7.91
2023-11-19T02:08:44.809Z,7.84
2023-11-19T02:11:13.215Z,7.95
2023-11-19T02:13:40.926Z,7.97
2023-11-19T02:16:09.858Z,7.92
2023-11-19T02:18:36.483Z,8.01
2023-11-19T02:21:03.170Z,7.99
2023-11-19T02:23:31.380Z,7.97
2023-11-19T02:26:15.200Z,8.01
2023-11-19T02:28:45.022Z,7.99
2023-11-19T02:31:12.679Z,7.92
2023-11-19T02:33:40.275Z,8.02
2023-11-19T02:36:08.464Z,8.03
2023-11-19T02:38:35.812Z,8.12
2023-11-19T02:41:09.632Z,8.13
2023-11-19T02:43:37.782Z,8.22
2023-11-19T02:48:38.380Z,8.09
2023-11-19T02:51:06.083Z,8.16
2023-11-19T02:53:33.069Z,8.16
2023-11-19T02:56:20.058Z,8.12
2023-11-19T02:58:47.605Z,8.13
2023-11-19T03:01:24.227Z,8.16
2023-11-19T03:03:56.202Z,8.20
2023-11-19T03:06:23.058Z,8.03
2023-11-19T03:08:49.828Z,8.10
2023-11-19T03:11:17.110Z,8.15
2023-11-19T03:13:43.782Z,8.15
2023-11-19T03:16:12.669Z,8.15
2023-11-19T03:18:40.510Z,8.15
2023-11-19T03:21:09.129Z,8.18
2023-11-19T03:23:36.549Z,8.26
2023-11-19T03:26:07.045Z,8.30
2023-11-19T03:28:34.386Z,8.25
2023-11-19T03:31:01.298Z,8.30
2023-11-19T03:33:29.472Z,8.37
2023-11-19T03:35:57.941Z,8.25
2023-11-19T03:38:28.309Z,8.39
2023-11-19T03:40:55.067Z,8.37
2023-11-19T03:43:24.705Z,8.39
2023-11-19T03:45:51.506Z,8.40
2023-11-19T03:48:18.615Z,8.44
2023-11-19T03:50:45.357Z,8.44
2023-11-19T03:53:13.237Z,8.52
2023-11-19T03:55:40.019Z,8.40
2023-11-19T03:58:06.769Z,8.41
2023-11-19T04:00:33.719Z,8.43
2023-11-19T04:03:00.644Z,8.40
2023-11-19T04:05:27.345Z,8.46
2023-11-19T04:07:53.992Z,8.51
2023-11-19T04:10:21.714Z,8.44
2023-11-19T04:12:48.512Z,8.44
2023-11-19T04:15:15.779Z,8.47
2023-11-19T04:17:42.597Z,8.40
2023-11-19T04:20:13.425Z,8.36
2023-11-19T04:22:40.378Z,8.41
2023-11-19T04:25:07.526Z,8.37
2023-11-19T04:27:34.173Z,8.26
2023-11-19T04:30:02.906Z,8.30
2023-11-19T04:32:30.230Z,8.24
2023-11-19T04:34:57.196Z,8.26
2023-11-19T04:37:24.175Z,8.41
2023-11-19T04:39:50.947Z,8.35
2023-11-19T04:42:18.531Z,8.40
2023-11-19T04:44:45.732Z,8.39
2023-11-19T04:47:12.606Z,8.36
2023-11-19T04:49:45.462Z,8.40
2023-11-19T04:52:13.377Z,8.45
2023-11-19T04:54:44.999Z,8.40
2023-11-19T04:57:14.619Z,8.33
2023-11-19T04:59:42.656Z,8.42
2023-11-19T05:02:10.379Z,8.47
2023-11-19T05:04:37.821Z,8.41
2023-11-19T05:07:04.862Z,8.20
2023-11-19T05:09:32.673Z,8.31
2023-11-19T05:12:03.037Z,8.20
2023-11-19T05:14:29.813Z,8.20
2023-11-19T05:16:56.567Z,8.42
2023-11-19T05:19:23.376Z,8.44
2023-11-19T05:21:53.230Z,8.46
2023-11-19T05:24:20.344Z,8.49
2023-11-19T05:26:48.105Z,8.51
2023-11-19T05:29:14.981Z,8.45
2023-11-19T05:31:44.789Z,8.36
2023-11-19T05:34:11.929Z,8.50
2023-11-19T05:36:38.583Z,8.50
2023-11-19T05:39:06.048Z,8.48
2023-11-19T05:41:32.837Z,8.41
2023-11-19T05:43:59.518Z,8.39
2023-11-19T05:46:28.412Z,8.46
2023-11-19T05:48:55.456Z,8.57
2023-11-19T05:51:22.222Z,8.54
2023-11-19T05:53:51.397Z,8.54
2023-11-19T05:56:22.702Z,8.37
2023-11-19T05:58:50.535Z,8.44
2023-11-19T06:01:17.903Z,8.49
2023-11-19T06:03:44.922Z,8.55
2023-11-19T06:06:12.584Z,8.57
2023-11-19T06:08:39.344Z,8.57
2023-11-19T06:11:06.165Z,8.56
2023-11-19T06:13:32.970Z,8.52
2023-11-19T06:16:00.036Z,8.55
2023-11-19T06:18:27.005Z,8.57
2023-11-19T06:20:53.802Z,8.58
2023-11-19T06:23:20.719Z,8.70
2023-11-19T06:25:47.453Z,8.76
2023-11-19T06:28:14.588Z,8.78
2023-11-19T06:30:42.729Z,8.79
2023-11-19T06:33:09.676Z,8.75
2023-11-19T06:35:39.310Z,8.68
2023-11-19T06:38:06.272Z,8.71
2023-11-19T06:40:34.084Z,8.78
2023-11-19T06:43:01.242Z,8.84
2023-11-19T06:45:27.997Z,8.81
2023-11-19T06:47:54.724Z,8.83
2023-11-19T06:50:21.400Z,8.86
2023-11-19T06:52:48.384Z,8.93
2023-11-19T06:55:15.228Z,8.80
2023-11-19T06:57:41.889Z,8.80
2023-11-19T07:00:10.115Z,8.87
2023-11-19T07:02:36.982Z,8.91
2023-11-19T07:05:05.747Z,9.01
2023-11-19T07:07:34.010Z,9.04
2023-11-19T07:10:00.764Z,9.05
2023-11-19T07:12:27.924Z,9.04
2023-11-19T07:14:56.219Z,9.02
2023-11-19T07:17:22.967Z,8.99
2023-11-19T07:19:51.355Z,9.02
2023-11-19T07:22:18.578Z,9.10
2023-11-19T07:24:45.500Z,9.09
2023-11-19T07:27:12.155Z,9.10
2023-11-19T07:29:39.526Z,9.15
2023-11-19T07:32:06.776Z,9.18
2023-11-19T07:34:33.476Z,9.19
2023-11-19T07:37:04.015Z,9.18
2023-11-19T07:39:30.885Z,9.19
2023-11-19T07:41:57.690Z,9.18
2023-11-19T07:44:24.387Z,9.15
2023-11-19T07:46:51.351Z,9.24
2023-11-19T07:49:18.673Z,9.27
2023-11-19T07:51:45.408Z,9.33
2023-11-19T07:54:12.098Z,9.36
2023-11-19T07:56:38.808Z,9.33
2023-11-19T07:59:05.615Z,9.36
2023-11-19T08:01:32.578Z,9.34
2023-11-19T08:04:00.228Z,9.19
2023-11-19T08:06:27.487Z,9.31
2023-11-19T08:08:54.461Z,9.33
2023-11-19T08:11:21.461Z,9.45
2023-11-19T08:13:48.661Z,9.26
2023-11-19T08:16:16.337Z,9.31
2023-11-19T08:18:44.732Z,9.39
2023-11-19T08:21:14.828Z,9.39
2023-11-19T08:23:41.655Z,9.34
2023-11-19T08:26:08.407Z,9.32
2023-11-19T08:28:36.291Z,9.31
2023-11-19T08:31:05.803Z,9.38
2023-11-19T08:33:33.138Z,9.45
2023-11-19T08:36:00.032Z,9.40
2023-11-19T08:41:00.992Z,9.54
2023-11-19T08:43:28.347Z,9.55
2023-11-19T08:45:55.172Z,9.55
2023-11-19T08:48:22.029Z,9.60
2023-11-19T08:50:50.507Z,9.59
2023-11-19T08:53:17.208Z,9.58
2023-11-19T08:55:44.192Z,9.55
2023-11-19T08:58:11.004Z,9.53
2023-11-19T09:00:37.820Z,9.59
2023-11-19T09:03:05.201Z,9.68
2023-11-19T09:05:32.686Z,9.70
2023-11-19T09:07:59.608Z,9.67
2023-11-19T09:10:26.405Z,9.69
2023-11-19T09:12:54.234Z,9.63
2023-11-19T09:15:21.950Z,9.64
2023-11-19T09:17:48.722Z,9.73
2023-11-19T09:20:16.891Z,9.73
2023-11-19T09:22:43.909Z,9.69
2023-11-19T09:25:10.733Z,9.78
2023-11-19T09:27:37.565Z,9.63
2023-11-19T09:30:05.598Z,9.73
2023-11-19T09:32:32.481Z,9.80
2023-11-19T09:34:59.393Z,9.82
2023-11-19T09:37:26.226Z,9.82
2023-11-19T09:39:54.508Z,9.82
2023-11-19T09:42:21.760Z,9.80
2023-11-19T09:44:49.461Z,9.82
2023-11-19T09:47:18.347Z,9.84
2023-11-19T09:49:45.355Z,9.92
2023-11-19T09:52:12.388Z,9.89
2023-11-19T09:54:39.083Z,9.83
2023-11-19T09:57:08.972Z,9.93
2023-11-19T09:59:35.807Z,9.94
2023-11-19T10:02:04.263Z,10.03
2023-11-19T10:04:33.844Z,9.91
2023-11-19T10:07:00.702Z,9.99
2023-11-19T10:09:27.669Z,10.06
2023-11-19T10:11:54.397Z,10.05
2023-11-19T10:14:24.911Z,10.10
2023-11-19T10:16:51.903Z,10.11
2023-11-19T10:19:24.484Z,10.04
2023-11-19T10:21:51.277Z,10.10
2023-11-19T10:24:32.202Z,10.09
2023-11-19T10:26:58.934Z,10.13
2023-11-19T10:29:25.676Z,10.15
2023-11-19T10:31:58.561Z,10.18
2023-11-19T10:34:45.152Z,10.13
2023-11-19T10:37:30.023Z,10.19
2023-11-19T10:39:56.898Z,10.22
2023-11-19T10:42:23.946Z,10.15
2023-11-19T10:44:51.176Z,10.13
2023-11-19T10:47:37.839Z,10.09
2023-11-19T10:50:07.482Z,10.16
2023-11-19T10:52:35.036Z,10.22
2023-11-19T10:55:03.661Z,10.24
2023-11-19T10:57:34.424Z,10.26
2023-11-19T11:00:03.744Z,10.23
2023-11-19T11:02:36.273Z,10.31
2023-11-19T11:05:04.400Z,10.32
2023-11-19T11:07:39.720Z,10.29
2023-11-19T11:10:10.752Z,10.40
2023-11-19T11:12:43.482Z,10.39
2023-11-19T11:15:13.650Z,10.45
2023-11-19T11:17:40.892Z,10.50
2023-11-19T11:20:10.215Z,10.54
2023-11-19T11:22:53.220Z,10.57
2023-11-19T11:26:18.467Z,10.62
2023-11-19T11:29:02.471Z,10.61
2023-11-19T11:31:54.306Z,10.66
2023-11-19T11:34:37.079Z,10.70
2023-11-19T11:37:11.504Z,10.76
2023-11-19T11:39:38.362Z,10.80
2023-11-19T11:42:23.706Z,10.85
2023-11-19T11:45:09.919Z,10.79
2023-11-19T11:47:45.911Z,10.85
2023-11-19T11:50:19.867Z,10.91
2023-11-19T11:52:58.531Z,10.93
2023-11-19T11:55:28.868Z,10.97
2023-11-19T11:57:56.511Z,10.98
2023-11-19T12:00:27.633Z,11.02
2023-11-19T12:03:00.842Z,10.97
2023-11-19T12:05:29.070Z,10.97
2023-11-19T12:08:02.678Z,11.07
2023-11-19T12:10:38.340Z,11.12
2023-11-19T12:13:10.546Z,11.13
2023-11-19T12:15:59.464Z,11.06
2023-11-19T12:18:33.584Z,10.95
2023-11-19T12:21:03.484Z,10.98
2023-11-19T12:23:31.147Z,11.05
2023-11-19T12:26:01.058Z,11.14
2023-11-19T12:28:28.757Z,11.04
2023-11-19T12:31:10.409Z,11.09
2023-11-19T12:33:37.361Z,11.09
2023-11-19T12:36:06.962Z,11.04
2023-11-19T12:38:33.813Z,11.03
2023-11-19T12:41:12.804Z,11.01
2023-11-19T12:46:24.256Z,11.00
2023-11-19T12:48:52.572Z,11.09
2023-11-19T12:51:19.469Z,11.06
2023-11-19T12:53:56.655Z,11.16
2023-11-19T12:56:26.282Z,11.15
2023-11-19T12:58:52.968Z,11.16
2023-11-19T13:01:20.951Z,11.19
2023-11-19T13:03:50.278Z,11.20
2023-11-19T13:06:17.362Z,11.28
2023-11-19T13:08:51.270Z,11.29
2023-11-19T13:11:35.321Z,11.32
2023-11-19T13:14:05.084Z,11.22
2023-11-19T13:16:33.175Z,11.27
2023-11-19T13:19:01.316Z,11.26
2023-11-19T13:21:28.273Z,11.22
2023-11-19T13:23:55.049Z,11.33
2023-11-19T13:26:21.799Z,11.34
2023-11-19T13:28:48.535Z,11.27
2023-11-19T13:31:15.609Z,11.30
2023-11-19T13:33:43.108Z,11.34
2023-11-19T13:36:11.673Z,11.39
2023-11-19T13:38:42.054Z,11.46
2023-11-19T13:41:11.124Z,11.36
2023-11-19T13:43:38.063Z,11.37
2023-11-19T13:46:04.999Z,11.33
2023-11-19T13:48:31.788Z,11.23
2023-11-19T13:51:01.400Z,11.21
2023-11-19T13:53:28.200Z,11.18
2023-11-19T13:55:54.919Z,11.27
2023-11-19T13:58:21.604Z,11.30
2023-11-19T14:00:48.335Z,11.27
2023-11-19T14:03:15.228Z,11.30
2023-11-19T14:05:43.444Z,11.29
2023-11-19T14:08:20.111Z,11.33
2023-11-19T14:10:53.241Z,11.19
2023-11-19T14:13:20.084Z,11.16
2023-11-19T14:15:49.087Z,11.21
2023-11-19T14:18:17.002Z,11.31
2023-11-19T14:20:43.939Z,11.32
2023-11-19T14:23:10.706Z,11.19
2023-11-19T14:25:37.577Z,11.14
2023-11-19T14:28:06.514Z,11.11
2023-11-19T14:30:35.080Z,11.11
2023-11-19T14:33:02.219Z,11.09
2023-11-19T14:35:31.361Z,11.14
2023-11-19T14:37:58.327Z,11.23
2023-11-19T14:40:42.355Z,11.22
2023-11-19T14:43:11.948Z,11.14
2023-11-19T14:45:45.165Z,11.11
2023-11-19T14:48:16.322Z,11.12
2023-11-19T14:50:43.015Z,11.07
2023-11-19T14:53:09.689Z,11.31
2023-11-19T14:55:36.576Z,11.23
2023-11-19T14:58:08.692Z,11.11
2023-11-19T15:00:37.248Z,11.07
2023-11-19T15:03:04.172Z,11.07
2023-11-19T15:05:31.006Z,10.93
2023-11-19T15:07:57.840Z,10.94
2023-11-19T15:10:26.336Z,11.02
2023-11-19T15:12:56.190Z,10.96
2023-11-19T15:17:52.913Z,10.74
2023-11-19T15:20:20.576Z,10.86
2023-11-19T15:22:47.735Z,10.87
2023-11-19T15:25:14.719Z,10.75
2023-11-19T15:27:41.573Z,10.76
2023-11-19T15:30:11.874Z,10.77
2023-11-19T15:32:40.352Z,10.72
2023-11-19T15:35:08.764Z,10.71
2023-11-19T15:37:36.503Z,10.80
2023-11-19T15:40:06.144Z,10.79
2023-11-19T15:42:32.834Z,10.78
2023-11-19T15:44:59.502Z,10.71
2023-11-19T15:47:26.315Z,10.70
2023-11-19T15:49:53.083Z,10.68
2023-11-19T15:52:19.765Z,10.70
2023-11-19T15:54:48.781Z,10.70
2023-11-19T15:57:16.014Z,10.68
2023-11-19T15:59:42.734Z,10.58
2023-11-19T16:02:09.523Z,10.67
2023-11-19T16:04:36.428Z,10.53
2023-11-19T16:07:03.188Z,10.62
2023-11-19T16:09:29.915Z,10.61
2023-11-19T16:11:57.102Z,10.59
2023-11-19T16:14:25.709Z,10.62
2023-11-19T16:16:54.391Z,10.64
2023-11-19T16:19:21.411Z,10.50
2023-11-19T16:21:48.654Z,10.50
2023-11-19T16:24:15.529Z,10.40
2023-11-19T16:26:42.229Z,10.51
2023-11-19T16:29:09.045Z,10.57
2023-11-19T16:31:36.415Z,10.59
2023-11-19T16:34:03.462Z,10.55
2023-11-19T16:36:30.373Z,10.45
2023-11-19T16:39:16.098Z,10.51
2023-11-19T16:41:44.285Z,10.46
2023-11-19T16:44:11.734Z,10.48
2023-11-19T16:46:39.068Z,10.44
2023-11-19T16:49:06.378Z,10.36
2023-11-19T16:51:33.273Z,10.44
2023-11-19T16:54:00.051Z,10.46
2023-11-19T16:56:27.378Z,10.23
2023-11-19T16:58:54.141Z,10.25
2023-11-19T17:01:20.922Z,10.12
2023-11-19T17:03:50.461Z,10.20
2023-11-19T17:06:17.149Z,10.17
2023-11-19T17:08:45.535Z,10.20
2023-11-19T17:11:12.214Z,10.16
2023-11-19T17:13:38.969Z,10.17
2023-11-19T17:16:08.185Z,10.27
2023-11-19T17:18:35.398Z,10.24
2023-11-19T17:21:02.129Z,10.28
2023-11-19T17:23:28.865Z,10.20
2023-11-19T17:25:56.045Z,10.12
2023-11-19T17:28:22.869Z,10.09
2023-11-19T17:30:49.685Z,10.02
2023-11-19T17:33:16.513Z,10.13
2023-11-19T17:35:43.490Z,10.16
2023-11-19T17:40:39.754Z,10.11
2023-11-19T17:43:06.466Z,10.14
2023-11-19T17:45:33.324Z,10.18
2023-11-19T17:48:03.430Z,10.15
2023-11-19T17:50:30.115Z,10.17
2023-11-19T17:52:56.890Z,10.15
2023-11-19T17:55:23.592Z,10.07
2023-11-19T17:57:52.187Z,10.06
2023-11-19T18:00:19.593Z,10.12
2023-11-19T18:02:49.564Z,10.10
2023-11-19T18:05:17.312Z,10.05
2023-11-19T18:07:44.344Z,10.20
2023-11-19T18:10:12.049Z,10.08
2023-11-19T18:12:41.702Z,10.12
2023-11-19T18:15:09.546Z,10.06
2023-11-19T18:17:43.177Z,10.07
2023-11-19T18:20:15.208Z,10.12
2023-11-19T18:22:42.540Z,10.09
2023-11-19T18:25:12.691Z,9.96
2023-11-19T18:27:39.699Z,9.93
2023-11-19T18:30:11.113Z,10.04
2023-11-19T18:32:38.720Z,10.03
2023-11-19T18:35:06.555Z,10.06
2023-11-19T18:37:34.350Z,10.15
2023-11-19T18:40:02.175Z,10.14
2023-11-19T18:42:29.108Z,10.06
2023-11-19T18:44:55.797Z,9.89
2023-11-19T18:47:22.850Z,9.94
2023-11-19T18:49:50.962Z,10.02
2023-11-19T18:52:18.406Z,9.99
2023-11-19T18:54:45.073Z,9.85
2023-11-19T18:57:11.728Z,9.92
2023-11-19T18:59:38.973Z,10.01
2023-11-19T19:02:05.781Z,10.00
2023-11-19T19:04:32.711Z,9.98
2023-11-19T19:07:02.691Z,10.10
2023-11-19T19:09:30.112Z,9.89
2023-11-19T19:11:56.870Z,9.95
2023-11-19T19:14:23.552Z,9.93
2023-11-19T19:16:50.592Z,9.90
2023-11-19T19:19:17.320Z,9.89
2023-11-19T19:21:44.027Z,9.80
2023-11-19T19:24:11.173Z,9.86
2023-11-19T19:26:38.136Z,10.00
2023-11-19T19:29:05.309Z,9.86
2023-11-19T19:31:32.546Z,9.76
2023-11-19T19:33:59.781Z,9.89
2023-11-19T19:36:29.348Z,9.81
2023-11-19T19:38:56.819Z,9.93
2023-11-19T19:41:24.724Z,10.00
2023-11-19T19:43:51.671Z,9.80
2023-11-19T19:46:18.453Z,9.79
2023-11-19T19:48:45.107Z,9.76
2023-11-19T19:51:12.635Z,9.88
2023-11-19T19:53:39.453Z,9.88
2023-11-19T19:56:08.985Z,9.89
2023-11-19T19:58:36.083Z,9.85
2023-11-19T20:01:03.907Z,9.87
2023-11-19T20:03:31.026Z,9.92
2023-11-19T20:05:59.129Z,9.88
2023-11-19T20:08:26.805Z,9.76
2023-11-19T20:10:53.630Z,9.76
2023-11-19T20:13:23.949Z,9.78
2023-11-19T20:15:54.006Z,9.74
2023-11-19T20:18:21.404Z,9.80
2023-11-19T20:20:49.215Z,9.93
2023-11-19T20:23:16.176Z,9.73
2023-11-19T20:25:43.747Z,9.76
2023-11-19T20:28:10.648Z,9.76
2023-11-19T20:30:37.456Z,9.75
2023-11-19T20:33:04.690Z,9.69
2023-11-19T20:35:31.437Z,9.65
2023-11-19T20:37:58.212Z,9.76
2023-11-19T20:40:25.006Z,9.73
2023-11-19T20:42:52.562Z,9.61
2023-11-19T20:45:20.726Z,9.76
2023-11-19T20:47:50.814Z,9.68
2023-11-19T20:50:17.730Z,9.65
2023-11-19T20:52:44.723Z,9.80
2023-11-19T20:55:12.760Z,9.68
2023-11-19T20:57:39.641Z,9.73
2023-11-19T21:00:08.215Z,9.61
2023-11-19T21:02:35.164Z,9.60
2023-11-19T21:05:02.191Z,9.73
2023-11-19T21:07:28.946Z,9.73
2023-11-19T21:09:55.976Z,9.83
2023-11-19T21:12:22.784Z,9.77
2023-11-19T21:14:49.488Z,9.58
2023-11-19T21:17:19.156Z,9.70
2023-11-19T21:19:47.526Z,9.79
2023-11-19T21:22:14.504Z,9.86
2023-11-19T21:24:42.870Z,9.68
2023-11-19T21:27:09.668Z,9.67
2023-11-19T21:29:36.430Z,9.76
2023-11-19T21:32:03.248Z,9.82
2023-11-19T21:34:30.371Z,9.90
2023-11-19T21:36:57.232Z,9.74
2023-11-19T21:39:24.409Z,9.70
2023-11-19T21:41:55.562Z,9.69
2023-11-19T21:44:22.866Z,9.65
2023-11-19T21:46:49.715Z,9.76
2023-11-19T21:49:16.350Z,9.82
2023-11-19T21:51:43.486Z,9.74
2023-11-19T21:54:10.375Z,9.71
2023-11-19T21:56:37.271Z,9.74
2023-11-19T21:59:04.242Z,9.73
2023-11-19T22:01:31.009Z,9.81
2023-11-19T22:03:57.951Z,9.62
2023-11-19T22:06:24.871Z,9.71
2023-11-19T22:08:51.585Z,9.75
2023-11-19T22:11:18.645Z,9.62
2023-11-19T22:13:45.390Z,9.47
2023-11-19T22:16:12.487Z,9.65
2023-11-19T22:18:39.311Z,9.60
2023-11-19T22:21:06.078Z,9.62
2023-11-19T22:23:32.767Z,9.70
2023-11-19T22:25:59.513Z,9.70
2023-11-19T22:28:26.242Z,9.59
2023-11-19T22:30:54.100Z,9.56
2023-11-19T22:33:21.462Z,9.61
2023-11-19T22:35:48.389Z,9.68
2023-11-19T22:38:15.044Z,9.64
2023-11-19T22:40:41.883Z,9.61
2023-11-19T22:43:08.600Z,9.66
2023-11-19T22:45:35.502Z,9.71
2023-11-19T22:48:02.779Z,9.67
2023-11-19T22:50:29.474Z,9.57
2023-11-19T22:52:58.042Z,9.58
2023-11-19T22:55:24.769Z,9.69
2023-11-19T23:00:29.368Z,9.61
2023-11-19T23:02:57.799Z,9.48
2023-11-19T23:05:28.754Z,9.58
2023-11-19T23:07:55.798Z,9.30
2023-11-19T23:10:22.841Z,9.47
2023-11-19T23:12:50.007Z,9.49
2023-11-19T23:15:17.610Z,9.41
2023-11-19T23:17:45.359Z,9.60
2023-11-19T23:20:14.384Z,9.59
2023-11-19T23:22:41.702Z,9.65
2023-11-19T23:25:09.278Z,9.69
2023-11-19T23:27:37.099Z,9.62
2023-11-19T23:30:04.613Z,9.48
2023-11-19T23:32:31.580Z,9.44
2023-11-19T23:34:58.371Z,9.53
2023-11-19T23:37:26.373Z,9.55
2023-11-19T23:39:53.831Z,9.55
2023-11-19T23:42:21.454Z,9.59
2023-11-19T23:44:48.476Z,9.45
2023-11-19T23:47:15.213Z,9.28
2023-11-19T23:49:42.370Z,9.26
2023-11-19T23:52:10.792Z,9.35
2023-11-19T23:54:37.777Z,9.38
2023-11-19T23:57:05.222Z,9.38
2023-11-19T23:59:32.097Z,9.42
